This is the latest recevied weather packets stored in our database for station/object W3JGB. If no packets are shown the sender has not sent any weather packets the latest 10 day(s).
| Time | Temp. | Humidity | Pressure | Rain* | Wind** | Luminosity | Snow |
|---|---|---|---|---|---|---|---|
| 1777589238 | 10.56° C | 75% | 1010.6 hPa | 0 mm | - | 31 W/m² | - |
| 1777574612 | 15° C | 64% | 1007.9 hPa | 0 mm | - | 209 W/m² | - |
| 1777574308 | 15° C | 64% | 1007.9 hPa | 0 mm | - | 209 W/m² | - |
| 1777574004 | 15° C | 64% | 1007.9 hPa | 0 mm | - | 209 W/m² | - |
| 1777573698 | 15.56° C | 63% | 1007.7 hPa | 0 mm | - | 168 W/m² | - |
| 1777573395 | 15° C | 64% | 1008 hPa | 0 mm | - | 262 W/m² | - |
| 1777573091 | 15° C | 65% | 1007.9 hPa | 0 mm | - | 243 W/m² | - |
| 1777572789 | 15° C | 65% | 1007.8 hPa | 0 mm | - | 425 W/m² | - |
| 1777572489 | 15° C | 65% | 1007.9 hPa | 0 mm | - | 230 W/m² | - |
| 1777572184 | 15° C | 61% | 1008 hPa | 0 mm | - | 967 W/m² | - |
| 1777571880 | 13.89° C | 68% | 1008.2 hPa | 0 mm | - | 321 W/m² | - |
| 1777571575 | 13.89° C | 67% | 1008.4 hPa | 0 mm | - | 248 W/m² | - |
| 1777571273 | 15° C | 66% | 1008.1 hPa | 0 mm | - | 218 W/m² | - |
| 1777570969 | 15° C | 67% | 1008.4 hPa | 0 mm | - | 282 W/m² | - |
| 1777570665 | 14.44° C | 65% | 1008.2 hPa | 0 mm | - | 325 W/m² | - |
| 1777570362 | 14.44° C | 69% | 1008.2 hPa | 0 mm | - | 345 W/m² | - |
| 1777570057 | 13.89° C | 67% | 1008.4 hPa | 0 mm | - | 262 W/m² | - |
| 1777569753 | 13.33° C | 70% | 1008.6 hPa | 0 mm | - | 203 W/m² | - |
| 1777569448 | 13.33° C | 71% | 1008.5 hPa | 0 mm | - | 94 W/m² | - |
| 1777569146 | 13.89° C | 72% | 1008.4 hPa | 0 mm | - | 61 W/m² | - |
| 1777568842 | 13.89° C | 68% | 1008.5 hPa | 0 mm | - | 75 W/m² | - |
| 1777568540 | 14.44° C | 68% | 1008.7 hPa | 0 mm | - | 150 W/m² | - |
| 1777568236 | 13.89° C | 67% | 1008.5 hPa | 0 mm | - | 241 W/m² | - |
| 1777567933 | 13.89° C | 65% | 1008.7 hPa | 0 mm | - | 180 W/m² | - |
| 1777567629 | 13.89° C | 66% | 1008.5 hPa | 0 mm | - | 145 W/m² | - |
* Rain latest hour (hover to see other rain measurements)
** Current wind speed in m/s (hover to see current wind gust speed)